Time;durP1;ratioP1;P1;durP2;ratioP2;P2;SDS_P1;SDS_P2;PMS_P1;PMS_P2;Temp;Humidity;BMP_temperature;BMP_pressure;BME280_temperature;BME280_humidity;BME280_pressure;Samples;Min_cycle;Max_cycle;Signal;HPM_P1;HPM_P2
2023/04/21 00:02:52;;;;;;;3.92;1.48;;;;;;;16.84;59.09;96141.00;10355611;28;20038;-33
2023/04/21 00:07:52;;;;;;;3.67;1.20;;;;;;;16.82;59.28;96137.66;10358744;28;20478;-33
2023/04/21 00:12:52;;;;;;;2.97;1.10;;;;;;;16.86;57.32;96138.47;10350126;28;20309;-33
2023/04/21 00:17:53;;;;;;;1.10;0.60;;;;;;;16.81;57.60;96119.97;10366098;28;20095;-33
2023/04/21 00:22:54;;;;;;;1.40;0.80;;;;;;;16.81;57.47;96114.91;10360194;28;20048;-33
2023/04/21 00:27:54;;;;;;;3.42;2.40;;;;;;;16.78;57.53;96117.44;10363437;28;20038;-33
2023/04/21 00:32:55;;;;;;;1.43;0.83;;;;;;;16.77;57.71;96118.28;10353212;28;20033;-33
2023/04/21 00:37:56;;;;;;;0.88;0.70;;;;;;;16.77;57.22;96118.28;10359101;28;20408;-33
2023/04/21 00:42:56;;;;;;;1.93;1.00;;;;;;;16.75;57.36;96110.69;10360312;28;20124;-32
2023/04/21 00:47:57;;;;;;;3.50;0.83;;;;;;;16.78;56.96;96119.97;10349640;28;20805;-33
2023/04/21 00:52:57;;;;;;;1.20;0.67;;;;;;;16.74;56.34;96113.25;10353595;28;20654;-33
2023/04/21 00:57:58;;;;;;;2.00;0.77;;;;;;;16.73;56.95;96107.34;10354564;28;20316;-32
2023/04/21 01:03:01;;;;;;;1.42;0.95;;;;;;;16.75;57.03;96110.69;10367359;28;20038;-32
2023/04/21 01:08:02;;;;;;;2.07;0.53;;;;;;;16.74;56.91;96109.03;10365973;28;20514;-33
2023/04/21 01:13:02;;;;;;;2.72;1.10;;;;;;;16.77;57.48;96112.41;10344652;28;20293;-32
2023/04/21 01:18:02;;;;;;;0.70;0.50;;;;;;;16.77;58.12;96107.34;10358779;28;20034;-33
2023/04/21 01:23:03;;;;;;;1.47;1.07;;;;;;;16.78;56.19;96107.31;10365562;28;20041;-33
2023/04/21 01:28:03;;;;;;;1.00;0.70;;;;;;;16.73;56.73;96111.56;10357737;28;20787;-33
2023/04/21 01:33:04;;;;;;;1.27;0.77;;;;;;;16.73;56.60;96106.53;10365813;28;20572;-33
2023/04/21 01:38:04;;;;;;;1.57;0.60;;;;;;;16.73;56.83;96109.03;10354223;28;20295;-33
2023/04/21 01:43:05;;;;;;;1.30;0.93;;;;;;;16.72;56.84;96107.38;10354669;28;20655;-33
2023/04/21 01:48:05;;;;;;;1.85;0.90;;;;;;;16.73;56.49;96115.78;10342966;28;20034;-33
2023/04/21 01:53:06;;;;;;;2.03;0.77;;;;;;;16.72;56.98;96109.91;10354195;28;20056;-33
2023/04/21 01:58:08;;;;;;;0.95;0.80;;;;;;;16.71;56.55;96112.41;10356864;28;20045;-33
2023/04/21 02:03:09;;;;;;;2.25;0.70;;;;;;;16.69;56.49;96114.94;10347993;28;20030;-33
2023/04/21 02:08:09;;;;;;;0.80;0.70;;;;;;;16.67;56.70;96111.59;10359144;28;20079;-32
2023/04/21 02:13:10;;;;;;;0.60;0.50;;;;;;;16.68;56.61;96108.22;10362582;28;20036;-33
2023/04/21 02:18:10;;;;;;;1.40;0.88;;;;;;;16.68;56.24;96113.25;10371603;28;20116;-33
2023/04/21 02:23:10;;;;;;;1.77;0.90;;;;;;;16.72;55.90;96114.94;10375130;28;20040;-32
2023/04/21 02:28:11;;;;;;;1.33;0.70;;;;;;;16.71;57.45;96098.06;10370028;28;20046;-32
2023/04/21 02:33:11;;;;;;;0.88;0.70;;;;;;;16.73;55.82;96093.03;10372655;28;20037;-33
2023/04/21 02:38:12;;;;;;;1.67;0.97;;;;;;;16.74;54.54;96091.31;10375172;28;20679;-33
2023/04/21 02:43:16;;;;;;;1.57;1.00;;;;;;;16.74;54.74;96083.75;10370315;28;20431;-33
2023/04/21 02:48:21;;;;;;;1.50;0.93;;;;;;;16.75;55.26;96092.19;10379271;28;20040;-33
2023/04/21 02:53:22;;;;;;;2.35;0.80;;;;;;;16.75;55.31;96087.13;10360365;28;20041;-32
2023/04/21 02:58:22;;;;;;;0.90;0.70;;;;;;;16.70;55.69;96091.34;10372096;28;20488;-32
2023/04/21 03:03:22;;;;;;;1.83;0.82;;;;;;;16.75;54.95;96094.72;10364747;28;20178;-33
2023/04/21 03:08:23;;;;;;;1.80;0.90;;;;;;;16.75;54.50;96084.59;10370631;28;20045;-33
2023/04/21 03:13:23;;;;;;;1.37;0.83;;;;;;;16.74;54.60;96082.91;10368688;28;20057;-33
2023/04/21 03:18:25;;;;;;;1.75;0.73;;;;;;;16.72;55.07;96086.28;10372150;28;20088;-32
2023/04/21 03:23:25;;;;;;;2.88;0.93;;;;;;;16.68;55.50;96082.94;10376107;28;20081;-32
2023/04/21 03:28:25;;;;;;;2.20;1.00;;;;;;;16.68;55.28;96082.94;10364379;28;20036;-34
2023/04/21 03:33:26;;;;;;;2.23;0.80;;;;;;;16.70;55.43;96076.19;10365040;28;20045;-32
2023/04/21 03:38:28;;;;;;;1.03;0.90;;;;;;;16.69;56.67;96079.56;10365550;28;20029;-33
2023/04/21 03:43:29;;;;;;;1.50;0.90;;;;;;;16.74;54.19;96093.84;10367696;28;20037;-33
2023/04/21 03:48:30;;;;;;;0.97;0.80;;;;;;;16.74;54.39;96088.81;10368892;28;20103;-33
2023/04/21 03:53:31;;;;;;;3.15;0.88;;;;;;;16.72;54.58;96083.78;10354893;28;20038;-34
2023/04/21 03:58:31;;;;;;;1.90;0.90;;;;;;;16.73;54.08;96090.50;10350689;28;20037;-33
2023/04/21 04:03:32;;;;;;;0.90;0.70;;;;;;;16.73;54.27;96087.13;10359321;28;20034;-33
2023/04/21 04:08:32;;;;;;;1.25;0.90;;;;;;;16.77;54.20;96087.94;10357423;28;20037;-33
2023/04/21 04:13:33;;;;;;;0.87;0.60;;;;;;;16.78;53.13;96089.63;10367026;28;20034;-32
2023/04/21 04:18:34;;;;;;;1.92;0.88;;;;;;;16.78;53.59;96090.50;10370694;28;20041;-32
2023/04/21 04:23:34;;;;;;;4.03;0.85;;;;;;;16.80;51.99;96093.00;10362571;28;20041;-33
2023/04/21 04:28:34;;;;;;;0.80;0.70;;;;;;;16.77;53.26;96087.94;10365322;28;20037;-32
2023/04/21 04:33:35;;;;;;;1.90;0.63;;;;;;;16.80;52.06;96091.31;10361092;28;20033;-32
2023/04/21 04:38:36;;;;;;;1.53;0.90;;;;;;;16.75;52.53;96090.47;10359844;28;20046;-33
2023/04/21 04:43:37;;;;;;;3.67;1.10;;;;;;;16.79;52.76;96088.78;10355564;28;20033;-32
2023/04/21 04:48:38;;;;;;;4.00;0.90;;;;;;;16.77;51.95;96088.81;10361793;28;20489;-32
2023/04/21 04:53:39;;;;;;;4.43;1.25;;;;;;;16.80;51.68;96100.56;10365543;28;20037;-33
2023/04/21 04:58:39;;;;;;;3.25;1.17;;;;;;;16.81;51.28;96098.06;10365998;28;20034;-33
2023/04/21 05:03:40;;;;;;;7.43;1.83;;;;;;;16.77;53.28;96103.97;10354423;28;20389;-32
2023/04/21 05:08:40;;;;;;;7.65;1.48;;;;;;;16.79;52.27;96102.28;10354838;28;21139;-33
2023/04/21 05:13:41;;;;;;;4.77;1.80;;;;;;;16.76;53.46;96106.50;10351798;28;20095;-32
2023/04/21 05:18:41;;;;;;;4.13;1.30;;;;;;;16.73;53.17;96111.56;10369334;28;20043;-33
2023/04/21 05:23:41;;;;;;;4.30;1.47;;;;;;;16.67;50.40;96110.72;10354320;28;20121;-32
2023/04/21 05:28:42;;;;;;;2.90;1.40;;;;;;;16.76;51.09;96121.66;10361785;28;20056;-33
2023/04/21 05:33:42;;;;;;;9.87;2.80;;;;;;;16.56;50.31;96113.31;10369054;28;20046;-33
2023/04/21 05:38:42;;;;;;;3.70;1.30;;;;;;;16.67;53.54;96119.16;10356143;28;20704;-33
2023/04/21 05:43:43;;;;;;;6.17;1.77;;;;;;;16.66;52.93;96116.63;10358688;28;20511;-33
2023/04/21 05:48:43;;;;;;;9.30;1.73;;;;;;;16.69;54.06;96114.13;10366365;28;20041;-33
2023/04/21 05:53:44;;;;;;;3.53;1.40;;;;;;;16.70;54.71;96116.63;10366274;28;20731;-33
2023/04/21 05:58:45;;;;;;;4.72;1.60;;;;;;;16.67;56.01;96113.25;10352516;28;20108;-31
2023/04/21 06:03:48;;;;;;;2.23;1.40;;;;;;;16.70;54.05;96111.56;10358444;28;20175;-33
2023/04/21 06:08:49;;;;;;;4.47;1.50;;;;;;;16.71;53.16;96112.41;10363927;28;20058;-32
2023/04/21 06:13:49;;;;;;;4.55;1.58;;;;;;;16.69;54.30;96107.34;10361737;28;20042;-32
2023/04/21 06:18:50;;;;;;;5.20;1.23;;;;;;;16.69;54.28;96099.78;10355715;28;20400;-32
2023/04/21 06:23:50;;;;;;;3.53;1.73;;;;;;;16.70;53.44;96105.69;10361611;28;20068;-32
2023/04/21 06:28:50;;;;;;;3.63;1.40;;;;;;;16.65;54.27;96102.31;10354055;28;20293;-32
2023/04/21 06:33:51;;;;;;;5.90;1.30;;;;;;;16.66;53.85;96089.69;10367055;28;20367;-33
2023/04/21 06:38:51;;;;;;;3.67;2.07;;;;;;;16.65;53.88;96095.59;10360913;28;20138;-33
2023/04/21 06:43:51;;;;;;;3.20;1.20;;;;;;;16.64;53.95;96091.38;10362490;28;20292;-33
2023/04/21 06:48:52;;;;;;;2.60;1.20;;;;;;;16.68;53.81;96085.47;10353402;28;20034;-32
2023/04/21 06:53:52;;;;;;;5.10;3.63;;;;;;;16.71;53.08;96085.44;10347142;28;20073;-32
2023/04/21 06:58:52;;;;;;;3.17;1.37;;;;;;;16.68;54.00;96085.47;10358698;28;20116;-33
2023/04/21 07:03:53;;;;;;;5.43;2.27;;;;;;;16.69;53.99;96079.56;10374722;28;20037;-33
2023/04/21 07:08:53;;;;;;;5.88;2.67;;;;;;;16.70;54.66;96078.72;10365620;28;20038;-32
2023/04/21 07:13:54;;;;;;;6.53;1.50;;;;;;;16.73;53.79;96081.25;10356988;28;20038;-32
2023/04/21 07:18:55;;;;;;;4.03;1.83;;;;;;;16.72;53.08;96077.03;10351302;28;20165;-32
2023/04/21 07:23:55;;;;;;;2.05;1.40;;;;;;;16.71;53.01;96070.28;10357068;28;20121;-33
2023/04/21 07:28:57;;;;;;;1.97;1.13;;;;;;;16.70;52.87;96045.84;10340853;28;20088;-33
2023/04/21 07:33:57;;;;;;;7.13;1.40;;;;;;;16.72;53.28;96049.25;10366360;28;20292;-33
2023/04/21 07:39:00;;;;;;;4.77;1.47;;;;;;;16.70;53.00;96053.44;10368689;28;20481;-32
2023/04/21 07:44:00;;;;;;;6.63;1.38;;;;;;;16.72;54.16;96054.28;10359287;28;20034;-33
2023/04/21 07:49:01;;;;;;;5.50;1.53;;;;;;;16.72;54.65;96061.03;10369869;28;20049;-33
2023/04/21 07:54:01;;;;;;;7.63;1.77;;;;;;;16.67;54.08;96045.03;10364089;28;20034;-33
2023/04/21 07:59:02;;;;;;;3.38;1.55;;;;;;;16.69;53.63;96049.22;10363939;28;20292;-32
2023/04/21 08:04:02;;;;;;;3.33;1.40;;;;;;;16.71;53.93;96039.13;10372027;28;20084;-33
2023/04/21 08:09:03;;;;;;;4.83;2.23;;;;;;;16.72;54.29;96038.28;10363699;28;20069;-32
2023/04/21 08:14:04;;;;;;;1.85;1.40;;;;;;;16.69;54.93;96023.97;10354980;28;20359;-33
2023/04/21 08:19:05;;;;;;;3.53;1.35;;;;;;;16.67;56.38;96012.16;10366442;28;21095;-32
2023/04/21 08:24:06;;;;;;;3.40;1.25;;;;;;;16.67;56.49;96015.56;10355606;28;20029;-33
2023/04/21 08:29:09;;;;;;;4.28;1.50;;;;;;;16.71;55.14;96012.16;10357850;28;20066;-33
2023/04/21 08:34:09;;;;;;;2.90;1.17;;;;;;;16.72;55.20;96018.06;10349087;28;20084;-32
2023/04/21 08:39:10;;;;;;;3.75;1.10;;;;;;;16.71;54.61;96007.09;10370658;28;20034;-33
2023/04/21 08:44:10;;;;;;;4.50;1.35;;;;;;;16.70;54.76;96013.00;10348092;28;20052;-32
2023/04/21 08:49:11;;;;;;;32.33;3.00;;;;;;;16.75;53.55;96001.19;10345333;28;20030;-33
2023/04/21 08:54:12;;;;;;;7.40;2.10;;;;;;;16.81;52.38;95993.59;10369956;28;20304;-33
2023/04/21 08:59:12;;;;;;;9.40;2.37;;;;;;;16.81;51.64;95994.41;10346172;28;20077;-32
2023/04/21 09:04:17;;;;;;;7.25;1.52;;;;;;;16.83;52.71;95986.84;10359602;28;20342;-33
2023/04/21 09:09:17;;;;;;;6.68;1.27;;;;;;;16.86;51.57;95986.81;10367191;28;20107;-32
2023/04/21 09:14:19;;;;;;;12.90;1.60;;;;;;;16.89;52.49;95987.63;10355074;28;20066;-32
2023/04/21 09:19:19;;;;;;;3.00;1.50;;;;;;;16.90;51.22;95989.31;10367204;28;20496;-33
2023/04/21 09:24:20;;;;;;;4.17;1.87;;;;;;;16.90;52.79;95973.31;10353875;28;20034;-32
2023/04/21 09:29:24;;;;;;;3.78;1.23;;;;;;;16.88;54.21;95980.03;10346825;28;20061;-33
2023/04/21 09:34:25;;;;;;;5.30;1.73;;;;;;;16.86;54.77;95996.91;10356758;28;20034;-32
2023/04/21 09:39:26;;;;;;;3.40;1.25;;;;;;;16.88;52.83;96006.19;10367115;28;20030;-32
2023/04/21 09:44:30;;;;;;;2.70;1.35;;;;;;;16.89;52.93;96012.09;10355301;28;20033;-33
2023/04/21 09:49:34;;;;;;;3.15;1.48;;;;;;;16.91;53.24;96025.56;10359655;28;20038;-33
2023/04/21 09:54:38;;;;;;;4.97;1.75;;;;;;;16.92;53.44;96024.69;10360552;28;20040;-33
2023/04/21 09:59:44;;;;;;;6.13;1.60;;;;;;;16.93;52.98;96022.19;10354086;28;20030;-33
2023/04/21 10:04:46;;;;;;;8.90;1.87;;;;;;;16.92;52.59;96017.13;10367080;28;20034;-33
2023/04/21 10:09:53;;;;;;;4.60;1.65;;;;;;;16.92;53.40;96012.88;10360127;28;20026;-33
2023/04/21 10:14:55;;;;;;;4.03;1.60;;;;;;;16.89;53.67;96002.78;10353599;28;20477;-33
2023/04/21 10:19:57;;;;;;;4.15;2.38;;;;;;;16.92;53.13;96004.47;10354797;28;21234;-33
2023/04/21 10:25:00;;;;;;;8.02;3.00;;;;;;;16.90;52.82;95998.59;10358805;28;20412;-33
2023/04/21 10:30:16;;;;;;;2.78;1.73;;;;;;;16.89;53.72;96001.97;10358661;28;20389;-33
2023/04/21 10:35:22;;;;;;;5.97;2.20;;;;;;;16.89;53.34;95999.44;10356146;28;20083;-33
2023/04/21 10:40:29;;;;;;;3.70;2.00;;;;;;;16.87;54.05;95989.34;10355505;28;20078;-32
2023/04/21 10:45:30;;;;;;;4.63;1.95;;;;;;;16.90;53.03;95988.47;10359266;28;20053;-32
2023/04/21 10:50:30;;;;;;;3.15;2.00;;;;;;;16.89;53.67;95981.75;10347073;28;20039;-32
2023/04/21 10:55:31;;;;;;;3.28;1.65;;;;;;;16.89;53.74;95976.69;10361043;28;20133;-32
2023/04/21 11:00:32;;;;;;;2.25;1.73;;;;;;;16.89;53.82;95977.50;10358217;28;20039;-33
2023/04/21 11:05:38;;;;;;;4.32;1.95;;;;;;;16.86;54.01;95996.91;10369079;28;20038;-32
2023/04/21 11:10:42;;;;;;;18.97;3.13;;;;;;;16.85;54.64;95985.13;10351680;28;20038;-33
2023/04/21 11:15:55;;;;;;;8.02;2.50;;;;;;;16.92;54.52;95979.19;10372929;28;20500;-33
2023/04/21 11:21:05;;;;;;;11.05;2.42;;;;;;;16.89;54.10;95992.69;10371932;28;20030;-34
2023/04/21 11:26:06;;;;;;;8.07;2.17;;;;;;;16.88;54.79;95995.22;10363130;28;20034;-32
2023/04/21 11:31:07;;;;;;;7.40;2.13;;;;;;;16.90;54.58;95994.34;10365154;28;20033;-32
2023/04/21 11:36:07;;;;;;;3.75;1.70;;;;;;;16.89;54.50;95991.88;10361227;28;20384;-33
2023/04/21 11:41:09;;;;;;;3.45;1.80;;;;;;;16.89;54.31;95987.63;10362762;28;20041;-34
2023/04/21 11:46:16;;;;;;;2.70;1.80;;;;;;;16.89;54.22;95979.22;10372012;28;20567;-33
2023/04/21 11:51:17;;;;;;;6.22;2.08;;;;;;;16.88;55.63;95985.09;10363868;28;20030;-34
2023/04/21 11:56:20;;;;;;;11.02;2.08;;;;;;;16.87;55.23;95974.16;10353283;28;20088;-34
2023/04/21 12:01:21;;;;;;;3.60;1.52;;;;;;;16.91;53.81;95975.00;10361375;28;20110;-33
2023/04/21 12:06:27;;;;;;;5.53;2.20;;;;;;;16.92;54.47;95971.59;10365291;28;20084;-34
2023/04/21 12:11:29;;;;;;;6.28;2.00;;;;;;;16.92;53.67;95972.44;10358287;28;20493;-33
2023/04/21 12:16:29;;;;;;;4.50;2.50;;;;;;;16.91;54.13;95972.47;10370405;28;20431;-34
2023/04/21 12:21:30;;;;;;;4.20;2.00;;;;;;;16.92;54.55;95977.47;10368470;28;20030;-34
2023/04/21 12:26:30;;;;;;;2.43;2.00;;;;;;;16.89;54.34;95972.47;10357033;28;20045;-34
2023/04/21 12:31:30;;;;;;;4.03;1.80;;;;;;;16.89;54.18;95987.63;10371015;28;20813;-34
2023/04/21 12:36:31;;;;;;;4.17;2.50;;;;;;;16.88;53.91;96000.25;10361017;28;20576;-33
2023/04/21 12:41:33;;;;;;;5.13;2.47;;;;;;;16.87;54.87;96009.56;10363721;28;20038;-33
2023/04/21 12:46:34;;;;;;;4.32;2.55;;;;;;;16.81;54.75;96024.75;10370541;28;20346;-33
2023/04/21 12:51:34;;;;;;;7.15;2.78;;;;;;;16.89;54.44;96017.16;10360714;28;20494;-34
2023/04/21 12:56:35;;;;;;;5.10;2.13;;;;;;;16.85;55.99;96030.63;10360147;28;20390;-33
2023/04/21 13:01:36;;;;;;;7.57;2.55;;;;;;;16.89;55.73;96027.25;10353692;28;20276;-34
2023/04/21 13:06:37;;;;;;;3.78;2.47;;;;;;;16.92;55.94;96024.69;10345890;28;20106;-33
2023/04/21 13:11:38;;;;;;;4.30;2.08;;;;;;;16.94;55.28;96025.53;10354553;28;20040;-34
2023/04/21 13:16:39;;;;;;;2.95;2.05;;;;;;;16.97;55.34;96031.41;10369723;28;20551;-35
2023/04/21 13:21:40;;;;;;;3.58;2.22;;;;;;;16.99;55.76;96033.94;10366658;28;20040;-34
2023/04/21 13:26:40;;;;;;;4.22;1.70;;;;;;;17.08;55.86;96023.78;10354162;28;20042;-34
2023/04/21 13:31:41;;;;;;;3.13;1.97;;;;;;;17.15;55.56;96021.19;10369095;28;20067;-33
2023/04/21 13:36:41;;;;;;;2.80;1.73;;;;;;;17.18;56.04;96021.19;10365845;28;20383;-34
2023/04/21 13:41:41;;;;;;;3.70;2.10;;;;;;;17.11;56.33;96024.59;10353262;28;20334;-32
2023/04/21 13:46:42;;;;;;;3.53;1.93;;;;;;;17.07;56.69;96020.38;10360266;28;20033;-31
2023/04/21 13:51:42;;;;;;;3.30;2.00;;;;;;;17.20;56.48;96018.63;10359859;28;20292;-32
2023/04/21 13:56:42;;;;;;;2.87;1.90;;;;;;;17.31;56.24;96012.66;10344727;28;20301;-31
2023/04/21 14:01:43;;;;;;;9.53;2.00;;;;;;;17.23;56.23;96008.50;10359074;28;20044;-32
2023/04/21 14:06:43;;;;;;;5.67;2.23;;;;;;;17.31;56.04;95994.13;10359128;28;20319;-32
2023/04/21 14:11:44;;;;;;;2.72;1.75;;;;;;;17.42;55.76;95990.66;10358724;28;20046;-33
2023/04/21 14:16:48;;;;;;;7.17;1.90;;;;;;;17.51;55.82;95994.84;10359548;28;20634;-31
2023/04/21 14:21:48;;;;;;;5.03;2.03;;;;;;;17.51;55.78;95997.38;10351839;28;20351;-34
2023/04/21 14:26:48;;;;;;;5.87;2.07;;;;;;;17.55;55.55;95996.47;10352242;28;20484;-33
2023/04/21 14:31:49;;;;;;;5.33;2.20;;;;;;;17.55;55.61;95981.28;10359181;28;20416;-34
2023/04/21 14:36:51;;;;;;;6.97;2.70;;;;;;;17.60;55.32;95992.22;10351377;28;20054;-33
2023/04/21 14:41:52;;;;;;;5.30;2.00;;;;;;;17.62;55.27;95995.56;10360419;28;20052;-34
2023/04/21 14:46:52;;;;;;;7.80;2.10;;;;;;;17.64;55.01;95996.41;10359075;28;20044;-36
2023/04/21 14:51:53;;;;;;;7.47;2.60;;;;;;;17.64;54.92;95992.19;10343423;28;20048;-33
2023/04/21 14:56:53;;;;;;;7.72;2.00;;;;;;;17.63;54.90;95994.72;10344375;28;20033;-31
2023/04/21 15:01:54;;;;;;;4.53;1.87;;;;;;;17.47;54.75;95993.16;10350677;28;20053;-32
2023/04/21 15:06:54;;;;;;;2.95;1.83;;;;;;;17.37;54.57;95986.50;10350455;28;20372;-32
2023/04/21 15:11:55;;;;;;;3.60;1.77;;;;;;;17.33;54.70;95984.81;10351153;28;20037;-32
2023/04/21 15:16:56;;;;;;;3.60;1.83;;;;;;;17.30;54.56;95977.25;10358455;28;20393;-31
2023/04/21 15:21:56;;;;;;;3.20;1.73;;;;;;;17.28;54.82;95971.34;10360103;28;20050;-31
2023/04/21 15:26:57;;;;;;;4.45;1.65;;;;;;;17.27;54.62;95979.81;10365832;28;20034;-31
2023/04/21 15:31:57;;;;;;;1.65;1.35;;;;;;;17.24;54.69;95985.72;10365376;28;20038;-31
2023/04/21 15:36:58;;;;;;;4.23;1.80;;;;;;;17.24;54.61;95974.78;10365386;28;20492;-31
2023/04/21 15:41:58;;;;;;;2.70;1.63;;;;;;;17.25;54.78;95973.91;10348302;28;20604;-32
2023/04/21 15:46:58;;;;;;;10.63;2.70;;;;;;;17.16;55.74;95971.47;10373194;28;20364;-32
2023/04/21 15:52:00;;;;;;;4.93;2.00;;;;;;;17.25;56.04;95961.28;10365265;28;20034;-32
2023/04/21 15:57:01;;;;;;;4.50;1.30;;;;;;;17.23;55.71;95962.97;10363275;28;20040;-31
2023/04/21 16:02:02;;;;;;;3.33;1.53;;;;;;;17.21;55.80;95965.50;10358074;28;20037;-32
2023/04/21 16:07:03;;;;;;;4.22;1.50;;;;;;;17.17;55.95;95958.78;10363552;28;20289;-32
2023/04/21 16:12:08;;;;;;;3.20;1.45;;;;;;;17.15;56.05;95955.44;10347639;28;20493;-32
2023/04/21 16:17:09;;;;;;;4.32;1.48;;;;;;;17.13;55.97;95952.06;10361580;28;20073;-32
2023/04/21 16:22:09;;;;;;;4.63;1.70;;;;;;;17.17;56.49;95952.91;10359841;28;20041;-32
2023/04/21 16:27:09;;;;;;;3.30;1.67;;;;;;;17.13;56.58;95941.09;10355022;28;20033;-32
2023/04/21 16:32:10;;;;;;;4.73;1.67;;;;;;;17.14;55.81;95942.81;10370566;28;20069;-32
2023/04/21 16:37:10;;;;;;;5.18;1.33;;;;;;;17.13;55.70;95941.09;10363408;28;20359;-32
2023/04/21 16:42:11;;;;;;;3.90;1.27;;;;;;;17.11;56.03;95947.88;10362559;28;20030;-32
2023/04/21 16:47:11;;;;;;;2.10;1.60;;;;;;;17.07;56.16;95941.19;10370787;28;20045;-31
2023/04/21 16:52:11;;;;;;;5.07;1.67;;;;;;;17.09;55.87;95934.41;10360009;28;20026;-32
2023/04/21 16:57:12;;;;;;;10.67;1.40;;;;;;;17.09;57.40;95934.41;10348527;28;20309;-32
2023/04/21 17:02:12;;;;;;;5.82;2.17;;;;;;;17.05;57.43;95932.72;10361963;28;20408;-31
2023/04/21 17:07:13;;;;;;;2.03;0.97;;;;;;;17.09;56.22;95937.75;10348351;28;20088;-33
2023/04/21 17:12:13;;;;;;;3.78;1.33;;;;;;;17.05;57.15;95931.06;10348115;28;20038;-33
2023/04/21 17:17:14;;;;;;;9.90;2.73;;;;;;;17.04;57.00;95936.13;10363442;28;20157;-32
2023/04/21 17:22:14;;;;;;;4.03;1.90;;;;;;;17.02;56.72;95936.16;10358948;28;20484;-33
2023/04/21 17:27:15;;;;;;;5.57;2.08;;;;;;;17.02;58.29;95937.81;10358012;28;20117;-32
2023/04/21 17:32:15;;;;;;;8.40;2.30;;;;;;;16.99;58.69;95940.38;10355104;28;20701;-32
2023/04/21 17:37:15;;;;;;;5.57;2.00;;;;;;;17.03;58.60;95945.41;10352484;28;20663;-33
2023/04/21 17:42:16;;;;;;;3.20;1.33;;;;;;;17.06;56.70;95939.50;10355355;28;20440;-32
2023/04/21 17:47:16;;;;;;;7.17;2.60;;;;;;;17.07;57.05;95941.19;10355999;28;20038;-32
2023/04/21 17:52:16;;;;;;;8.23;2.83;;;;;;;17.07;56.74;95946.22;10349715;28;20579;-33
2023/04/21 17:57:17;;;;;;;6.03;2.50;;;;;;;17.06;56.75;95937.78;10346865;28;20092;-33
2023/04/21 18:02:17;;;;;;;4.87;1.93;;;;;;;17.07;56.68;95947.06;10367920;28;20446;-33
2023/04/21 18:07:17;;;;;;;11.63;2.90;;;;;;;17.06;56.98;95945.38;10364453;28;20033;-32
2023/04/21 18:12:18;;;;;;;6.23;2.37;;;;;;;17.06;56.31;95939.50;10357127;28;20038;-33
2023/04/21 18:17:19;;;;;;;9.23;2.45;;;;;;;17.07;56.94;95936.13;10350777;28;20290;-33
2023/04/21 18:22:19;;;;;;;4.63;2.08;;;;;;;17.04;56.97;95936.13;10361786;28;20138;-33
2023/04/21 18:27:19;;;;;;;5.23;2.00;;;;;;;17.05;56.51;95933.59;10357557;28;20030;-33
2023/04/21 18:32:20;;;;;;;5.43;1.77;;;;;;;17.04;56.56;95942.03;10353952;28;20037;-33
2023/04/21 18:37:20;;;;;;;5.20;1.80;;;;;;;17.05;57.10;95948.75;10337087;28;20297;-33
2023/04/21 18:42:21;;;;;;;4.73;1.97;;;;;;;17.11;57.58;95947.88;10349096;28;20413;-33
2023/04/21 18:47:21;;;;;;;5.20;2.00;;;;;;;17.09;58.46;95949.59;10351754;28;20297;-33
2023/04/21 18:52:22;;;;;;;7.28;2.33;;;;;;;17.07;57.21;95956.34;10354125;28;20416;-32
2023/04/21 18:57:22;;;;;;;17.13;3.75;;;;;;;17.02;56.13;95963.13;10368234;28;20030;-33
2023/04/21 19:02:23;;;;;;;8.87;1.97;;;;;;;17.07;57.13;95971.53;10362392;28;20021;-33
2023/04/21 19:07:23;;;;;;;8.60;2.30;;;;;;;17.05;57.14;95968.13;10362325;28;20042;-33
2023/04/21 19:12:26;;;;;;;5.10;2.10;;;;;;;17.05;56.44;95968.13;10352291;28;20651;-33
2023/04/21 19:17:26;;;;;;;8.02;2.00;;;;;;;17.03;57.66;95964.78;10368690;28;20427;-33
2023/04/21 19:22:30;;;;;;;6.77;2.00;;;;;;;17.04;56.52;95961.41;10365623;28;20105;-33
2023/04/21 19:27:31;;;;;;;6.13;1.80;;;;;;;17.00;56.84;95959.75;10360781;28;20293;-32
2023/04/21 19:32:31;;;;;;;5.35;2.20;;;;;;;17.03;57.42;95957.19;10365191;28;20433;-34
2023/04/21 19:37:31;;;;;;;5.70;1.93;;;;;;;17.02;57.23;95968.16;10355921;28;20053;-33
2023/04/21 19:42:32;;;;;;;7.67;1.87;;;;;;;17.01;57.20;95961.44;10367825;28;20297;-32
2023/04/21 19:47:35;;;;;;;3.83;2.10;;;;;;;17.05;57.75;95965.59;10368703;28;20292;-32
2023/04/21 19:52:35;;;;;;;5.65;2.13;;;;;;;17.04;59.10;95969.00;10359299;28;20046;-32
2023/04/21 19:57:36;;;;;;;5.07;1.80;;;;;;;17.03;57.25;95967.31;10364382;28;20037;-33
2023/04/21 20:02:36;;;;;;;3.63;1.50;;;;;;;17.04;57.73;95972.38;10347682;28;20030;-33
2023/04/21 20:07:37;;;;;;;4.30;2.10;;;;;;;17.05;58.35;95974.06;10348158;28;20034;-33
2023/04/21 20:12:37;;;;;;;10.45;1.60;;;;;;;17.01;58.81;95976.59;10346743;28;20602;-32
2023/04/21 20:17:37;;;;;;;5.00;1.80;;;;;;;17.01;58.95;95982.53;10354050;28;20109;-32
2023/04/21 20:22:38;;;;;;;7.73;2.10;;;;;;;16.98;58.86;95981.69;10345586;28;20044;-33
2023/04/21 20:27:39;;;;;;;5.40;1.67;;;;;;;16.97;58.93;95979.97;10355920;28;20040;-33
2023/04/21 20:32:39;;;;;;;6.45;1.77;;;;;;;16.98;58.59;95976.63;10345881;28;20069;-33
2023/04/21 20:37:41;;;;;;;3.50;1.93;;;;;;;16.97;58.94;95969.88;10347287;28;20045;-33
2023/04/21 20:42:44;;;;;;;4.05;1.50;;;;;;;16.97;59.16;95969.88;10359852;28;20070;-32
2023/04/21 20:47:44;;;;;;;4.57;1.83;;;;;;;16.97;58.59;95969.88;10361223;28;20026;-33
2023/04/21 20:52:45;;;;;;;3.83;1.90;;;;;;;16.97;59.57;95972.41;10359611;28;20046;-33
2023/04/21 20:57:45;;;;;;;5.03;1.20;;;;;;;16.97;59.65;95974.94;10364583;28;20045;-33
2023/04/21 21:02:46;;;;;;;4.00;2.07;;;;;;;16.96;58.70;95980.84;10365988;28;20550;-33
2023/04/21 21:07:47;;;;;;;3.93;1.67;;;;;;;16.99;58.80;95985.91;10356029;28;20300;-33
2023/04/21 21:12:47;;;;;;;5.60;1.67;;;;;;;16.96;59.45;95979.16;10343719;28;20567;-33
2023/04/21 21:17:47;;;;;;;3.10;1.57;;;;;;;16.96;59.30;95974.09;10348645;28;20042;-33
2023/04/21 21:22:48;;;;;;;4.38;1.90;;;;;;;16.95;59.09;95976.63;10352111;28;20396;-33
2023/04/21 21:27:48;;;;;;;3.63;1.73;;;;;;;16.95;59.14;95977.50;10347024;28;20029;-32
2023/04/21 21:32:49;;;;;;;2.60;1.55;;;;;;;16.91;59.39;95969.94;10364856;28;20037;-32
2023/04/21 21:37:50;;;;;;;2.50;1.30;;;;;;;16.95;59.33;95984.22;10358810;28;20048;-33
2023/04/21 21:42:51;;;;;;;3.65;2.00;;;;;;;16.94;59.33;95974.97;10359286;28;20069;-32
2023/04/21 21:47:51;;;;;;;2.33;1.47;;;;;;;16.94;59.26;95977.50;10355317;28;20504;-32
2023/04/21 21:52:51;;;;;;;4.27;1.40;;;;;;;16.92;58.25;95982.53;10348739;28;20129;-32
2023/04/21 21:57:52;;;;;;;2.63;1.50;;;;;;;17.03;58.44;95970.69;10350958;28;20663;-33
2023/04/21 22:02:52;;;;;;;11.65;1.77;;;;;;;17.07;58.25;95979.09;10336651;28;20065;-32
2023/04/21 22:07:55;;;;;;;2.23;1.47;;;;;;;17.06;58.11;95977.44;10356122;28;20030;-32
2023/04/21 22:12:56;;;;;;;3.75;2.00;;;;;;;16.93;57.53;95964.03;10345263;28;20030;-32
2023/04/21 22:17:56;;;;;;;7.43;1.97;;;;;;;16.96;57.52;95978.31;10363534;28;20041;-32
2023/04/21 22:22:56;;;;;;;3.80;1.60;;;;;;;16.97;57.87;95979.97;10343558;28;20117;-33
2023/04/21 22:27:57;;;;;;;7.57;2.03;;;;;;;16.93;58.18;95979.19;10354782;28;20048;-32
2023/04/21 22:32:58;;;;;;;4.13;2.30;;;;;;;16.93;57.59;95978.34;10363458;28;20034;-32
2023/04/21 22:37:58;;;;;;;5.53;2.57;;;;;;;16.92;57.05;95974.97;10355509;28;20045;-33
2023/04/21 22:42:58;;;;;;;4.23;2.60;;;;;;;16.92;57.62;95980.00;10352425;28;20351;-32
2023/04/21 22:47:59;;;;;;;5.23;2.73;;;;;;;16.90;58.54;95974.13;10362942;28;20034;-32
2023/04/21 22:53:00;;;;;;;4.57;2.83;;;;;;;16.91;57.24;95975.00;10347004;28;20400;-33
2023/04/21 22:58:00;;;;;;;4.10;3.03;;;;;;;16.91;58.77;95972.47;10361438;28;20049;-33
2023/04/21 23:03:00;;;;;;;4.70;2.93;;;;;;;16.90;56.15;95976.66;10370255;28;20285;-33
2023/04/21 23:08:01;;;;;;;9.00;3.27;;;;;;;16.98;58.60;95972.41;10360762;28;20613;-32
2023/04/21 23:13:01;;;;;;;5.30;2.97;;;;;;;17.05;57.76;95968.13;10359063;28;20467;-32
2023/04/21 23:18:01;;;;;;;6.17;2.60;;;;;;;17.02;56.71;95960.59;10356875;28;20411;-33